Time;durP1;ratioP1;P1;durP2;ratioP2;P2;SDS_P1;SDS_P2;PMS_P1;PMS_P2;Temp;Humidity;BMP_temperature;BMP_pressure;BME280_temperature;BME280_humidity;BME280_pressure;Samples;Min_cycle;Max_cycle;Signal;HPM_P1;HPM_P2
2023/04/17 00:02:11;;;;;;;;;;;18.40;55.80;;;;;;6151675;28;20704;-75
2023/04/17 00:05:12;;;;;;;;;;;18.40;55.80;;;;;;6166426;28;20092;-73
2023/04/17 00:08:12;;;;;;;;;;;18.40;55.70;;;;;;6151552;29;20046;-75
2023/04/17 00:11:13;;;;;;;;;;;18.50;55.80;;;;;;6151165;29;20384;-75
2023/04/17 00:14:14;;;;;;;;;;;18.40;55.70;;;;;;6166457;28;19919;-75
2023/04/17 00:17:14;;;;;;;;;;;18.40;55.70;;;;;;6151211;29;19970;-75
2023/04/17 00:20:15;;;;;;;;;;;18.40;55.50;;;;;;6145067;29;19911;-75
2023/04/17 00:23:15;;;;;;;;;;;18.40;55.80;;;;;;6134012;29;19916;-75
2023/04/17 00:26:16;;;;;;;;;;;18.40;55.70;;;;;;6125464;29;19921;-75
2023/04/17 00:29:16;;;;;;;;;;;18.40;55.70;;;;;;6125561;29;19911;-75
2023/04/17 00:32:17;;;;;;;;;;;18.40;56.00;;;;;;6125942;29;20045;-75
2023/04/17 00:35:18;;;;;;;;;;;18.40;55.70;;;;;;6149686;29;19919;-75
2023/04/17 00:38:18;;;;;;;;;;;18.40;55.70;;;;;;6151060;29;19910;-75
2023/04/17 00:41:19;;;;;;;;;;;18.40;55.60;;;;;;6146599;29;19910;-75
2023/04/17 00:44:20;;;;;;;;;;;18.40;55.70;;;;;;6150767;28;19914;-75
2023/04/17 00:47:21;;;;;;;;;;;18.40;55.50;;;;;;6150523;29;19921;-75
2023/04/17 00:50:22;;;;;;;;;;;18.40;55.60;;;;;;6148328;29;19928;-75
2023/04/17 00:53:23;;;;;;;;;;;18.40;55.60;;;;;;6150544;29;20609;-75
2023/04/17 00:56:24;;;;;;;;;;;18.40;55.60;;;;;;6149220;28;20068;-74
2023/04/17 00:59:25;;;;;;;;;;;18.40;55.70;;;;;;6150597;29;19914;-74
2023/04/17 01:02:26;;;;;;;;;;;18.40;55.60;;;;;;6150599;29;19927;-75
2023/04/17 01:05:26;;;;;;;;;;;18.40;55.60;;;;;;6132927;29;19956;-75
2023/04/17 01:08:28;;;;;;;;;;;18.40;55.70;;;;;;6150149;29;19914;-75
2023/04/17 01:11:29;;;;;;;;;;;18.40;55.60;;;;;;6150224;29;20577;-75
2023/04/17 01:14:29;;;;;;;;;;;18.40;55.70;;;;;;6149544;29;19914;-74
2023/04/17 01:17:30;;;;;;;;;;;18.40;55.60;;;;;;6150248;29;19917;-75
2023/04/17 01:20:31;;;;;;;;;;;18.40;55.50;;;;;;6164760;28;19922;-75
2023/04/17 01:23:45;;;;;;;;;;;18.40;55.60;;;;;;6149781;29;20436;-75
2023/04/17 01:26:46;;;;;;;;;;;18.40;55.70;;;;;;6149759;29;19985;-75
2023/04/17 01:29:47;;;;;;;;;;;18.40;55.70;;;;;;6149912;29;20000;-75
2023/04/17 01:32:47;;;;;;;;;;;18.40;55.70;;;;;;6164708;28;19942;-74
2023/04/17 01:35:48;;;;;;;;;;;18.40;55.50;;;;;;6144351;29;20345;-74
2023/04/17 01:38:48;;;;;;;;;;;18.40;55.60;;;;;;6149362;28;19914;-75
2023/04/17 01:41:50;;;;;;;;;;;18.40;55.60;;;;;;6132070;29;20326;-76
2023/04/17 01:44:51;;;;;;;;;;;18.40;55.70;;;;;;6149049;28;20000;-75
2023/04/17 01:47:51;;;;;;;;;;;18.40;55.60;;;;;;6149317;29;19919;-75
2023/04/17 01:50:52;;;;;;;;;;;18.40;55.70;;;;;;6131736;29;19950;-75
2023/04/17 01:53:52;;;;;;;;;;;18.40;55.70;;;;;;6148978;29;19961;-74
2023/04/17 01:56:54;;;;;;;;;;;18.40;55.70;;;;;;6149042;29;19914;-72
2023/04/17 01:59:54;;;;;;;;;;;18.40;55.60;;;;;;6149159;29;20104;-74
2023/04/17 02:02:55;;;;;;;;;;;18.40;55.60;;;;;;6148672;28;19947;-74
2023/04/17 02:05:56;;;;;;;;;;;18.40;55.60;;;;;;6163501;28;19914;-74
2023/04/17 02:08:57;;;;;;;;;;;18.40;55.70;;;;;;6148554;29;19964;-74
2023/04/17 02:11:58;;;;;;;;;;;18.40;55.70;;;;;;6148565;29;20001;-74
2023/04/17 02:14:59;;;;;;;;;;;18.40;55.70;;;;;;6148181;29;19915;-74
2023/04/17 02:18:00;;;;;;;;;;;18.40;55.60;;;;;;6141775;29;20314;-74
2023/04/17 02:21:01;;;;;;;;;;;18.40;55.70;;;;;;6148585;29;19938;-74
2023/04/17 02:24:02;;;;;;;;;;;18.40;55.70;;;;;;6130942;28;19914;-74
2023/04/17 02:27:02;;;;;;;;;;;18.40;55.70;;;;;;6148394;29;19949;-74
2023/04/17 02:30:03;;;;;;;;;;;18.40;55.70;;;;;;6130992;29;20429;-74
2023/04/17 02:33:04;;;;;;;;;;;18.40;55.70;;;;;;6147209;29;20436;-74
2023/04/17 02:36:05;;;;;;;;;;;18.40;55.50;;;;;;6130470;29;20428;-74
2023/04/17 02:39:06;;;;;;;;;;;18.40;55.70;;;;;;6130663;29;20353;-74
2023/04/17 02:42:06;;;;;;;;;;;18.40;55.70;;;;;;6127418;29;20130;-74
2023/04/17 02:45:07;;;;;;;;;;;18.40;55.60;;;;;;6130514;29;19957;-74
2023/04/17 02:48:08;;;;;;;;;;;18.40;55.60;;;;;;6147900;29;19911;-75
2023/04/17 02:51:08;;;;;;;;;;;18.40;55.60;;;;;;6130112;28;19910;-74
2023/04/17 02:54:09;;;;;;;;;;;18.40;55.70;;;;;;6130296;28;19915;-74
2023/04/17 02:57:09;;;;;;;;;;;18.40;55.50;;;;;;6147491;29;19910;-74
2023/04/17 03:00:13;;;;;;;;;;;18.40;55.60;;;;;;6130505;29;20013;-74
2023/04/17 03:03:14;;;;;;;;;;;18.40;55.60;;;;;;6147595;29;19978;-74
2023/04/17 03:06:15;;;;;;;;;;;18.40;55.60;;;;;;6147499;29;20281;-74
2023/04/17 03:09:17;;;;;;;;;;;18.40;55.60;;;;;;6148058;29;19911;-74
2023/04/17 03:12:17;;;;;;;;;;;18.40;55.60;;;;;;6147440;29;20370;-73
2023/04/17 03:15:18;;;;;;;;;;;18.40;55.60;;;;;;6130464;29;19953;-74
2023/04/17 03:18:18;;;;;;;;;;;18.40;55.60;;;;;;6130144;29;20370;-75
2023/04/17 03:21:19;;;;;;;;;;;18.40;55.60;;;;;;6130432;29;19911;-75
2023/04/17 03:24:20;;;;;;;;;;;18.40;55.60;;;;;;6144758;28;19914;-74
2023/04/17 03:27:23;;;;;;;;;;;18.40;55.60;;;;;;6147428;29;20579;-74
2023/04/17 03:30:23;;;;;;;;;;;18.40;55.60;;;;;;6130341;29;19911;-75
2023/04/17 03:33:24;;;;;;;;;;;18.40;55.50;;;;;;6147140;29;19966;-74
2023/04/17 03:36:26;;;;;;;;;;;18.40;55.50;;;;;;6147156;28;19921;-74
2023/04/17 03:39:26;;;;;;;;;;;18.40;55.30;;;;;;6130380;29;19918;-74
2023/04/17 03:42:27;;;;;;;;;;;18.40;55.60;;;;;;6130232;29;19911;-74
2023/04/17 03:45:27;;;;;;;;;;;18.40;55.50;;;;;;6147025;29;19921;-74
2023/04/17 03:48:28;;;;;;;;;;;18.40;55.60;;;;;;6130124;29;19937;-74
2023/04/17 03:51:28;;;;;;;;;;;18.40;55.40;;;;;;6162223;28;20258;-74
2023/04/17 03:54:34;;;;;;;;;;;18.40;55.50;;;;;;6161486;28;19969;-75
2023/04/17 03:57:34;;;;;;;;;;;18.40;55.50;;;;;;6147370;29;20001;-74
2023/04/17 04:00:36;;;;;;;;;;;18.40;55.50;;;;;;6145260;29;19917;-76
2023/04/17 04:03:37;;;;;;;;;;;18.40;55.50;;;;;;6149187;28;19965;-74
2023/04/17 04:06:39;;;;;;;;;;;18.40;55.50;;;;;;6133998;29;19914;-75
2023/04/17 04:09:39;;;;;;;;;;;18.40;55.50;;;;;;6134203;29;19911;-74
2023/04/17 04:12:40;;;;;;;;;;;18.40;55.50;;;;;;6151634;29;19910;-74
2023/04/17 04:15:40;;;;;;;;;;;18.40;55.40;;;;;;6134238;29;19915;-74
2023/04/17 04:18:43;;;;;;;;;;;18.40;55.50;;;;;;6144609;29;20198;-74
2023/04/17 04:21:44;;;;;;;;;;;18.40;55.50;;;;;;6146034;29;19911;-73
2023/04/17 04:24:52;;;;;;;;;;;18.40;55.40;;;;;;6148029;29;20101;-74
2023/04/17 04:27:53;;;;;;;;;;;18.40;55.30;;;;;;6142645;29;20098;-73
2023/04/17 04:30:54;;;;;;;;;;;18.40;55.40;;;;;;6150793;29;19911;-73
2023/04/17 04:33:57;;;;;;;;;;;18.40;55.60;;;;;;6149965;29;19969;-74
2023/04/17 04:36:58;;;;;;;;;;;18.40;55.60;;;;;;6135727;29;19965;-74
2023/04/17 04:40:09;;;;;;;;;;;18.40;55.60;;;;;;6142680;29;19910;-74
2023/04/17 04:43:09;;;;;;;;;;;18.40;55.60;;;;;;6131393;29;19911;-73
2023/04/17 04:46:10;;;;;;;;;;;18.40;55.50;;;;;;6150125;29;20573;-73
2023/04/17 04:49:13;;;;;;;;;;;18.40;55.50;;;;;;6149810;29;19925;-73
2023/04/17 04:52:13;;;;;;;;;;;18.40;55.50;;;;;;6149587;29;20298;-73
2023/04/17 04:55:14;;;;;;;;;;;18.50;55.50;;;;;;6148053;29;20006;-72
2023/04/17 04:58:15;;;;;;;;;;;18.50;55.60;;;;;;6149272;29;20417;-72
2023/04/17 05:01:16;;;;;;;;;;;18.40;55.60;;;;;;6151801;28;19936;-72
2023/04/17 05:04:18;;;;;;;;;;;18.40;55.50;;;;;;6163993;28;19928;-73
2023/04/17 05:07:19;;;;;;;;;;;18.40;55.60;;;;;;6149593;29;20374;-73
2023/04/17 05:10:21;;;;;;;;;;;18.50;55.70;;;;;;6149380;29;19921;-74
2023/04/17 05:13:23;;;;;;;;;;;18.40;55.60;;;;;;6148406;28;19923;-74
2023/04/17 05:16:24;;;;;;;;;;;18.50;55.60;;;;;;6144628;29;19924;-73
2023/04/17 05:19:25;;;;;;;;;;;18.40;55.60;;;;;;6148950;29;20004;-73
2023/04/17 05:22:26;;;;;;;;;;;18.50;55.60;;;;;;6128073;29;19910;-73
2023/04/17 05:25:27;;;;;;;;;;;18.50;55.60;;;;;;6147275;29;19921;-73
2023/04/17 05:28:28;;;;;;;;;;;18.50;55.50;;;;;;6148681;29;19915;-73
2023/04/17 05:31:29;;;;;;;;;;;18.50;55.20;;;;;;6131589;29;19918;-73
2023/04/17 05:34:30;;;;;;;;;;;18.50;55.10;;;;;;6141769;29;19915;-73
2023/04/17 05:37:31;;;;;;;;;;;18.60;55.10;;;;;;6148864;29;19918;-73
2023/04/17 05:40:31;;;;;;;;;;;18.60;55.00;;;;;;6145042;29;19914;-72
2023/04/17 05:43:32;;;;;;;;;;;18.60;55.10;;;;;;6148432;29;19978;-71
2023/04/17 05:46:33;;;;;;;;;;;18.60;55.20;;;;;;6148436;28;19921;-73
2023/04/17 05:49:33;;;;;;;;;;;18.50;55.20;;;;;;6131838;29;19911;-73
2023/04/17 05:52:35;;;;;;;;;;;18.50;55.30;;;;;;6149306;29;19938;-73
2023/04/17 05:55:35;;;;;;;;;;;18.50;55.30;;;;;;6146679;28;20009;-73
2023/04/17 05:58:36;;;;;;;;;;;18.50;55.40;;;;;;6131842;29;19915;-73
2023/04/17 06:01:36;;;;;;;;;;;18.50;55.40;;;;;;6134565;28;19962;-72
2023/04/17 06:04:37;;;;;;;;;;;18.50;55.40;;;;;;6150955;29;20282;-72
2023/04/17 06:07:37;;;;;;;;;;;18.50;55.40;;;;;;6150627;29;20337;-73
2023/04/17 06:10:38;;;;;;;;;;;18.50;55.30;;;;;;6149601;29;20488;-72
2023/04/17 06:13:39;;;;;;;;;;;18.50;55.30;;;;;;6150355;29;19997;-73
2023/04/17 06:16:39;;;;;;;;;;;18.50;55.30;;;;;;6150295;28;19914;-73
2023/04/17 06:19:40;;;;;;;;;;;18.50;55.30;;;;;;6149462;29;20374;-72
2023/04/17 06:22:43;;;;;;;;;;;18.50;55.40;;;;;;6149461;29;19938;-73
2023/04/17 06:25:43;;;;;;;;;;;18.50;55.40;;;;;;6149754;28;19914;-73
2023/04/17 06:28:44;;;;;;;;;;;18.50;55.40;;;;;;6133126;29;19986;-73
2023/04/17 06:31:45;;;;;;;;;;;18.50;55.40;;;;;;6150014;29;20437;-73
2023/04/17 06:34:46;;;;;;;;;;;18.50;55.30;;;;;;6146506;29;19915;-72
2023/04/17 06:37:47;;;;;;;;;;;18.50;55.30;;;;;;6148209;29;20408;-72
2023/04/17 06:40:47;;;;;;;;;;;18.50;55.40;;;;;;6150039;29;20009;-72
2023/04/17 06:43:49;;;;;;;;;;;18.50;55.40;;;;;;6149716;29;19911;-72
2023/04/17 06:46:50;;;;;;;;;;;18.50;55.40;;;;;;6132470;29;19910;-73
2023/04/17 06:49:51;;;;;;;;;;;18.50;56.00;;;;;;6132464;29;19957;-73
2023/04/17 06:52:51;;;;;;;;;;;18.50;55.30;;;;;;6150010;29;20293;-72
2023/04/17 06:55:52;;;;;;;;;;;18.50;55.30;;;;;;6149354;29;19915;-72
2023/04/17 06:58:53;;;;;;;;;;;18.50;55.30;;;;;;6150059;29;19914;-72
2023/04/17 07:01:54;;;;;;;;;;;18.50;55.30;;;;;;6147793;29;19919;-73
2023/04/17 07:04:55;;;;;;;;;;;18.50;55.40;;;;;;6149801;28;20001;-73
2023/04/17 07:07:55;;;;;;;;;;;18.50;55.40;;;;;;6149131;29;20394;-73
2023/04/17 07:10:56;;;;;;;;;;;18.40;55.30;;;;;;6149364;29;19938;-73
2023/04/17 07:13:57;;;;;;;;;;;18.40;55.30;;;;;;6149126;28;19914;-73
2023/04/17 07:16:58;;;;;;;;;;;18.50;55.30;;;;;;6132329;29;19921;-73
2023/04/17 07:19:58;;;;;;;;;;;18.40;55.30;;;;;;6149460;29;20424;-74
2023/04/17 07:22:59;;;;;;;;;;;18.40;55.30;;;;;;6149437;29;19910;-73
2023/04/17 07:26:00;;;;;;;;;;;18.50;55.30;;;;;;6148815;28;19921;-73
2023/04/17 07:29:00;;;;;;;;;;;18.40;55.30;;;;;;6132056;29;19921;-74
2023/04/17 07:32:01;;;;;;;;;;;18.40;55.30;;;;;;6149613;29;19966;-73
2023/04/17 07:35:03;;;;;;;;;;;18.50;55.30;;;;;;6149173;28;20025;-73
2023/04/17 07:38:04;;;;;;;;;;;18.40;55.30;;;;;;6150968;28;20309;-73
2023/04/17 07:41:04;;;;;;;;;;;18.50;55.30;;;;;;6153935;29;19918;-73
2023/04/17 07:44:05;;;;;;;;;;;18.40;55.20;;;;;;6153751;29;19922;-72
2023/04/17 07:47:06;;;;;;;;;;;18.40;55.20;;;;;;6152623;29;20013;-73
2023/04/17 07:50:06;;;;;;;;;;;18.40;55.30;;;;;;6153693;29;19929;-73
2023/04/17 07:53:07;;;;;;;;;;;18.40;55.30;;;;;;6152223;29;19919;-73
2023/04/17 07:56:07;;;;;;;;;;;18.40;55.20;;;;;;6153236;29;19918;-72
2023/04/17 07:59:08;;;;;;;;;;;18.40;55.30;;;;;;6153187;29;20005;-73
2023/04/17 08:02:09;;;;;;;;;;;18.40;55.20;;;;;;6152614;28;20013;-72
2023/04/17 08:05:09;;;;;;;;;;;18.40;55.20;;;;;;6152663;29;19911;-73
2023/04/17 08:08:10;;;;;;;;;;;18.40;55.20;;;;;;6150421;29;20362;-73
2023/04/17 08:11:10;;;;;;;;;;;18.40;55.30;;;;;;6153354;29;20293;-72
2023/04/17 08:14:11;;;;;;;;;;;18.40;55.20;;;;;;6135449;28;20370;-73
2023/04/17 08:17:12;;;;;;;;;;;18.40;55.30;;;;;;6153003;29;19972;-73
2023/04/17 08:20:13;;;;;;;;;;;18.40;55.20;;;;;;6135790;29;19918;-73
2023/04/17 08:23:13;;;;;;;;;;;18.40;55.20;;;;;;6152725;29;20468;-73
2023/04/17 08:26:17;;;;;;;;;;;18.40;55.30;;;;;;6152574;28;19914;-72
2023/04/17 08:29:17;;;;;;;;;;;18.40;55.30;;;;;;6152359;29;19938;-73
2023/04/17 08:32:18;;;;;;;;;;;18.40;55.30;;;;;;6135169;29;19961;-73
2023/04/17 08:35:19;;;;;;;;;;;18.40;55.20;;;;;;6129424;29;20013;-73
2023/04/17 08:38:20;;;;;;;;;;;18.40;55.20;;;;;;6152793;29;19922;-73
2023/04/17 08:41:22;;;;;;;;;;;18.40;55.20;;;;;;6152607;29;19915;-73
2023/04/17 08:44:22;;;;;;;;;;;18.40;55.30;;;;;;6152700;28;20327;-72
2023/04/17 08:47:23;;;;;;;;;;;18.40;55.20;;;;;;6152318;29;19914;-73
2023/04/17 08:50:24;;;;;;;;;;;18.40;55.20;;;;;;6150922;28;19918;-73
2023/04/17 08:53:24;;;;;;;;;;;18.40;55.20;;;;;;6152224;29;19910;-73
2023/04/17 08:56:27;;;;;;;;;;;18.40;55.20;;;;;;6146444;28;19915;-73
2023/04/17 08:59:27;;;;;;;;;;;18.40;55.20;;;;;;6152113;29;19914;-73
2023/04/17 09:02:28;;;;;;;;;;;18.40;55.30;;;;;;6110147;29;19940;-76
2023/04/17 09:05:35;;;;;;;;;;;18.40;55.20;;;;;;6139047;29;19918;-72
2023/04/17 09:08:38;;;;;;;;;;;18.40;55.20;;;;;;6130422;29;19977;-73
2023/04/17 09:11:39;;;;;;;;;;;18.40;55.30;;;;;;6133715;29;19919;-73
2023/04/17 09:18:25;;;;;;;;;;;18.40;55.30;;;;;;6150481;29;19995;-73
2023/04/17 09:21:26;;;;;;;;;;;18.40;55.20;;;;;;6151037;29;19916;-73
2023/04/17 09:24:33;;;;;;;;;;;18.40;55.20;;;;;;6140111;29;20381;-74
2023/04/17 09:27:34;;;;;;;;;;;18.40;55.30;;;;;;6148023;29;19910;-73
2023/04/17 09:30:40;;;;;;;;;;;18.50;55.40;;;;;;6150577;29;19957;-73
2023/04/17 09:34:12;;;;;;;;;;;18.40;55.30;;;;;;6145992;28;19910;-74
2023/04/17 09:37:35;;;;;;;;;;;18.40;55.30;;;;;;6143131;29;20293;-74
2023/04/17 09:40:44;;;;;;;;;;;18.40;55.30;;;;;;6124106;29;19966;-73
2023/04/17 09:44:08;;;;;;;;;;;18.40;55.30;;;;;;6139601;29;19969;-73
2023/04/17 09:47:11;;;;;;;;;;;18.40;55.40;;;;;;6147438;29;19949;-73
2023/04/17 09:50:37;;;;;;;;;;;18.40;55.40;;;;;;6144286;29;20401;-74
2023/04/17 09:53:42;;;;;;;;;;;18.40;55.40;;;;;;6124939;29;19911;-74
2023/04/17 09:56:43;;;;;;;;;;;18.40;55.40;;;;;;6139467;29;19968;-73
2023/04/17 09:59:48;;;;;;;;;;;18.40;55.40;;;;;;6137094;29;19919;-73
2023/04/17 10:02:53;;;;;;;;;;;18.40;55.40;;;;;;6146742;29;19945;-73
2023/04/17 10:05:56;;;;;;;;;;;18.40;55.50;;;;;;6149804;28;20401;-74
2023/04/17 10:09:12;;;;;;;;;;;18.40;55.40;;;;;;6140370;29;19914;-74
2023/04/17 10:16:15;;;;;;;;;;;18.40;55.40;;;;;;6137216;29;20388;-74
2023/04/17 10:19:44;;;;;;;;;;;;;;;;;;;;;
2023/04/17 10:22:48;;;;;;;;;;;18.40;55.40;;;;;;6149557;29;20012;-74
2023/04/17 10:26:07;;;;;;;;;;;18.40;55.50;;;;;;6148701;29;19918;-73
2023/04/17 10:29:08;;;;;;;;;;;18.40;56.20;;;;;;6149928;29;19917;-73
2023/04/17 10:32:09;;;;;;;;;;;18.40;55.40;;;;;;6143718;29;19911;-73
2023/04/17 10:35:16;;;;;;;;;;;18.40;55.40;;;;;;6149312;29;20406;-74
2023/04/17 10:38:29;;;;;;;;;;;18.40;55.40;;;;;;6148588;29;19917;-74
2023/04/17 10:41:30;;;;;;;;;;;18.40;55.50;;;;;;6144048;29;19910;-72
2023/04/17 10:44:34;;;;;;;;;;;18.40;55.50;;;;;;6149597;28;19911;-73
2023/04/17 10:47:36;;;;;;;;;;;18.40;55.40;;;;;;6149272;29;19993;-73
2023/04/17 10:50:38;;;;;;;;;;;18.40;55.40;;;;;;6149364;29;19910;-73
2023/04/17 10:53:43;;;;;;;;;;;18.40;55.40;;;;;;6164220;28;19910;-73
2023/04/17 10:56:47;;;;;;;;;;;18.40;55.40;;;;;;6149141;29;19922;-73
2023/04/17 11:00:08;;;;;;;;;;;18.40;55.50;;;;;;6149202;29;20366;-73
2023/04/17 11:03:14;;;;;;;;;;;18.40;55.50;;;;;;6142249;29;19950;-73
2023/04/17 11:06:21;;;;;;;;;;;18.40;55.30;;;;;;6149509;28;19918;-73
2023/04/17 11:09:22;;;;;;;;;;;18.40;55.30;;;;;;6121538;29;19914;-74
2023/04/17 11:12:23;;;;;;;;;;;18.40;55.30;;;;;;6148088;29;19926;-73
2023/04/17 11:15:29;;;;;;;;;;;18.40;55.40;;;;;;6144074;28;20005;-73
2023/04/17 11:18:31;;;;;;;;;;;18.40;55.50;;;;;;6146748;29;20302;-73
2023/04/17 11:21:32;;;;;;;;;;;18.40;55.30;;;;;;6131598;29;19922;-73
2023/04/17 11:24:33;;;;;;;;;;;18.40;55.40;;;;;;6148203;29;19910;-73
2023/04/17 11:27:34;;;;;;;;;;;18.40;55.40;;;;;;6149048;29;19945;-73
2023/04/17 11:30:36;;;;;;;;;;;18.40;55.40;;;;;;6140397;28;20025;-73
2023/04/17 11:33:37;;;;;;;;;;;18.40;55.50;;;;;;6139777;29;20301;-73
2023/04/17 11:36:40;;;;;;;;;;;18.40;55.40;;;;;;6130177;29;19925;-74
2023/04/17 11:39:41;;;;;;;;;;;18.40;55.40;;;;;;6134486;29;19914;-73
2023/04/17 11:42:45;;;;;;;;;;;18.40;55.40;;;;;;6134295;29;19972;-74
2023/04/17 11:45:57;;;;;;;;;;;18.40;55.50;;;;;;6129582;29;19911;-73
2023/04/17 11:48:58;;;;;;;;;;;18.40;55.40;;;;;;6128224;29;20421;-74
2023/04/17 11:52:00;;;;;;;;;;;18.40;55.50;;;;;;6119388;29;19922;-73
2023/04/17 11:55:01;;;;;;;;;;;18.40;55.40;;;;;;6132296;29;19925;-73
2023/04/17 11:58:05;;;;;;;;;;;18.40;55.40;;;;;;6135011;29;19919;-74
2023/04/17 12:21:48;;;;;;;;;;;18.40;55.40;;;;;;6118519;29;20337;-74
2023/04/17 12:32:48;;;;;;;;;;;18.40;55.40;;;;;;6100344;29;19915;-76
2023/04/17 12:35:52;;;;;;;;;;;18.40;55.40;;;;;;6099704;29;19966;-74
2023/04/17 12:38:53;;;;;;;;;;;18.40;55.40;;;;;;6100927;29;19922;-74
2023/04/17 13:00:16;;;;;;;;;;;18.40;55.40;;;;;;6122150;29;19965;-72
2023/04/17 13:03:16;;;;;;;;;;;18.40;55.40;;;;;;6114743;29;20023;-74
2023/04/17 13:06:17;;;;;;;;;;;18.40;55.50;;;;;;6124674;29;20316;-73
2023/04/17 13:09:18;;;;;;;;;;;18.40;55.50;;;;;;6128817;29;19966;-73
2023/04/17 13:12:19;;;;;;;;;;;18.40;55.30;;;;;;6148464;29;20369;-74
2023/04/17 13:15:20;;;;;;;;;;;18.40;55.50;;;;;;6149512;29;19926;-73
2023/04/17 13:18:21;;;;;;;;;;;18.40;55.50;;;;;;6149196;29;19910;-72
2023/04/17 13:21:21;;;;;;;;;;;18.40;55.40;;;;;;6149428;29;20250;-73
2023/04/17 13:24:22;;;;;;;;;;;18.40;55.50;;;;;;6129804;28;19938;-73
2023/04/17 13:27:24;;;;;;;;;;;18.40;55.50;;;;;;6124881;29;19911;-73
2023/04/17 13:30:25;;;;;;;;;;;18.40;55.50;;;;;;6126418;29;20358;-72
2023/04/17 13:33:26;;;;;;;;;;;18.40;55.60;;;;;;6124924;29;19943;-73
2023/04/17 13:36:27;;;;;;;;;;;18.50;55.60;;;;;;6139280;28;19918;-72
2023/04/17 13:39:27;;;;;;;;;;;18.40;55.50;;;;;;6132799;29;19915;-71
2023/04/17 13:42:28;;;;;;;;;;;18.40;55.60;;;;;;6149443;29;20018;-74
2023/04/17 13:45:28;;;;;;;;;;;18.40;55.50;;;;;;6149647;29;20405;-72
2023/04/17 13:48:30;;;;;;;;;;;18.40;55.50;;;;;;6147097;29;19914;-73
2023/04/17 13:51:31;;;;;;;;;;;18.40;55.50;;;;;;6132600;29;20408;-71
2023/04/17 13:54:31;;;;;;;;;;;18.40;55.50;;;;;;6145701;28;19965;-72
2023/04/17 13:57:32;;;;;;;;;;;18.40;55.60;;;;;;6149446;29;19962;-72
2023/04/17 14:00:32;;;;;;;;;;;18.40;55.60;;;;;;6149142;29;19915;-72
2023/04/17 14:03:33;;;;;;;;;;;18.40;55.50;;;;;;6129906;29;19925;-72
2023/04/17 14:06:33;;;;;;;;;;;18.40;55.60;;;;;;6149590;28;19922;-72
2023/04/17 14:09:34;;;;;;;;;;;18.40;55.60;;;;;;6149596;29;19914;-73
2023/04/17 14:12:35;;;;;;;;;;;18.50;55.60;;;;;;6148605;29;20387;-72
2023/04/17 14:15:39;;;;;;;;;;;18.40;55.60;;;;;;6147226;29;19921;-73
2023/04/17 14:18:39;;;;;;;;;;;18.40;55.60;;;;;;6149165;29;19914;-71
2023/04/17 14:21:40;;;;;;;;;;;18.40;55.60;;;;;;6148296;29;20293;-71
2023/04/17 14:24:40;;;;;;;;;;;18.40;55.60;;;;;;6147605;28;20004;-72
2023/04/17 14:27:41;;;;;;;;;;;18.40;55.60;;;;;;6148645;29;20649;-72
2023/04/17 14:30:42;;;;;;;;;;;18.40;55.60;;;;;;6148741;29;19991;-72
2023/04/17 14:33:42;;;;;;;;;;;18.40;55.60;;;;;;6148340;29;20034;-72
2023/04/17 14:36:43;;;;;;;;;;;18.50;56.40;;;;;;6148724;28;19914;-73
2023/04/17 14:39:43;;;;;;;;;;;18.50;55.70;;;;;;6148319;29;19945;-72
2023/04/17 14:42:44;;;;;;;;;;;18.40;55.60;;;;;;6131192;29;20035;-74
2023/04/17 14:45:46;;;;;;;;;;;18.50;55.70;;;;;;6147542;29;19910;-73
2023/04/17 14:48:46;;;;;;;;;;;18.40;55.70;;;;;;6147078;28;19915;-73
2023/04/17 14:51:47;;;;;;;;;;;18.40;55.70;;;;;;6131397;29;19962;-74
2023/04/17 14:54:47;;;;;;;;;;;18.40;55.70;;;;;;6147997;29;19930;-74
2023/04/17 14:57:48;;;;;;;;;;;18.40;55.70;;;;;;6149120;29;19911;-73
2023/04/17 15:00:48;;;;;;;;;;;18.40;55.70;;;;;;6149015;29;19915;-73
2023/04/17 15:03:49;;;;;;;;;;;18.40;55.70;;;;;;6147075;29;19910;-73
2023/04/17 15:07:12;;;;;;;;;;;18.50;55.70;;;;;;6142221;28;19934;-73
2023/04/17 15:10:36;;;;;;;;;;;18.40;55.70;;;;;;6148116;29;20012;-73
2023/04/17 15:13:39;;;;;;;;;;;18.40;55.70;;;;;;6136899;29;19910;-73
2023/04/17 15:16:40;;;;;;;;;;;18.40;55.70;;;;;;6124890;29;19922;-73
2023/04/17 15:19:41;;;;;;;;;;;18.40;55.70;;;;;;6142118;29;19915;-72
2023/04/17 15:22:42;;;;;;;;;;;18.50;55.70;;;;;;6130914;29;19910;-73
2023/04/17 15:26:00;;;;;;;;;;;18.40;55.70;;;;;;6147623;29;20347;-74
2023/04/17 15:29:04;;;;;;;;;;;18.40;55.70;;;;;;6147111;29;19911;-73
2023/04/17 15:32:13;;;;;;;;;;;18.40;55.70;;;;;;6108361;29;20018;-73
2023/04/17 15:35:22;;;;;;;;;;;18.40;55.70;;;;;;6142838;29;19914;-74
2023/04/17 15:38:26;;;;;;;;;;;18.40;55.80;;;;;;6148091;29;19921;-73
2023/04/17 15:41:40;;;;;;;;;;;18.50;55.90;;;;;;6143139;29;19911;-73
2023/04/17 15:44:42;;;;;;;;;;;18.40;55.80;;;;;;6146948;28;19911;-73
2023/04/17 15:48:24;;;;;;;;;;;18.40;55.80;;;;;;6148111;29;19954;-73
2023/04/17 15:51:30;;;;;;;;;;;18.50;55.80;;;;;;6123705;29;19918;-73
2023/04/17 15:54:41;;;;;;;;;;;18.40;55.80;;;;;;6131950;28;20001;-72
2023/04/17 15:58:02;;;;;;;;;;;18.40;55.80;;;;;;6130871;28;19957;-72
2023/04/17 16:01:03;;;;;;;;;;;18.40;55.80;;;;;;6144890;29;19914;-74
2023/04/17 16:04:03;;;;;;;;;;;18.40;55.80;;;;;;6152294;29;19961;-74
2023/04/17 16:07:04;;;;;;;;;;;18.40;55.80;;;;;;6152829;28;19985;-73
2023/04/17 16:10:12;;;;;;;;;;;18.40;55.80;;;;;;6128331;29;19917;-74
2023/04/17 16:13:14;;;;;;;;;;;18.50;55.90;;;;;;6151781;29;19919;-72
2023/04/17 16:16:15;;;;;;;;;;;18.40;55.80;;;;;;6146804;29;20005;-73
2023/04/17 16:19:15;;;;;;;;;;;18.50;55.80;;;;;;6133128;29;19911;-72
2023/04/17 16:22:16;;;;;;;;;;;18.40;55.80;;;;;;6158215;28;19910;-72
2023/04/17 16:25:17;;;;;;;;;;;18.40;55.80;;;;;;6147325;28;19911;-73
2023/04/17 16:28:18;;;;;;;;;;;18.40;55.80;;;;;;6133030;29;19917;-73
2023/04/17 16:31:20;;;;;;;;;;;18.40;55.80;;;;;;6150484;29;19911;-74
2023/04/17 16:34:20;;;;;;;;;;;18.50;55.90;;;;;;6149732;28;19937;-72
2023/04/17 16:37:21;;;;;;;;;;;18.50;55.90;;;;;;6150252;29;20417;-71
2023/04/17 16:40:32;;;;;;;;;;;18.50;55.90;;;;;;6150192;29;20281;-72
2023/04/17 16:43:33;;;;;;;;;;;18.50;55.90;;;;;;6148494;29;20286;-74
2023/04/17 16:46:34;;;;;;;;;;;18.40;55.80;;;;;;6144713;29;19961;-74
2023/04/17 16:49:34;;;;;;;;;;;18.40;55.90;;;;;;6148379;29;20012;-74
2023/04/17 17:15:15;;;;;;;;;;;18.50;55.90;;;;;;6186309;28;19918;-74
2023/04/17 17:18:16;;;;;;;;;;;18.40;55.80;;;;;;6125969;29;20556;-74
2023/04/17 17:29:11;;;;;;;;;;;18.50;55.90;;;;;;5986411;29;20447;-72
2023/04/17 17:32:12;;;;;;;;;;;18.40;55.80;;;;;;6013717;29;19916;-72
2023/04/17 17:35:13;;;;;;;;;;;18.40;55.90;;;;;;6119561;29;19921;-74
2023/04/17 17:38:14;;;;;;;;;;;18.40;55.90;;;;;;6108125;29;19910;-74
2023/04/17 17:41:14;;;;;;;;;;;18.40;55.80;;;;;;6125414;29;20329;-74
2023/04/17 17:44:15;;;;;;;;;;;18.50;56.00;;;;;;6124402;29;19910;-74
2023/04/17 17:47:15;;;;;;;;;;;18.50;56.00;;;;;;6124778;29;19911;-74
2023/04/17 17:50:16;;;;;;;;;;;18.40;55.90;;;;;;6124893;29;19918;-73
2023/04/17 17:53:17;;;;;;;;;;;18.50;56.00;;;;;;6107550;29;19997;-73
2023/04/17 17:56:19;;;;;;;;;;;18.50;55.90;;;;;;6124629;29;19915;-73
2023/04/17 17:59:20;;;;;;;;;;;18.50;56.70;;;;;;6123253;29;19961;-74
2023/04/17 18:02:21;;;;;;;;;;;18.50;56.00;;;;;;6124268;29;19911;-74
2023/04/17 18:05:22;;;;;;;;;;;18.50;55.80;;;;;;6123812;29;19944;-72
2023/04/17 18:08:22;;;;;;;;;;;18.50;55.80;;;;;;6118950;29;19922;-73
2023/04/17 18:11:23;;;;;;;;;;;18.50;55.80;;;;;;6123890;29;19915;-73
2023/04/17 18:14:24;;;;;;;;;;;18.50;55.80;;;;;;6123710;29;19911;-74
2023/04/17 18:17:24;;;;;;;;;;;18.50;55.80;;;;;;6122767;29;19922;-73
2023/04/17 18:20:25;;;;;;;;;;;18.50;55.80;;;;;;6124254;29;19963;-72
2023/04/17 18:23:28;;;;;;;;;;;18.50;55.80;;;;;;6117933;29;19933;-74
2023/04/17 18:26:30;;;;;;;;;;;18.50;55.90;;;;;;6121720;29;20012;-74
2023/04/17 18:29:31;;;;;;;;;;;18.50;55.90;;;;;;6136566;29;19911;-74
2023/04/17 18:32:32;;;;;;;;;;;18.50;55.90;;;;;;6139044;29;19921;-73
2023/04/17 18:35:41;;;;;;;;;;;18.50;55.90;;;;;;6105959;29;20359;-73
2023/04/17 18:38:41;;;;;;;;;;;18.50;55.90;;;;;;6117692;29;19917;-73
2023/04/17 18:41:42;;;;;;;;;;;18.50;56.00;;;;;;6122942;29;19946;-71
2023/04/17 18:44:43;;;;;;;;;;;18.50;55.90;;;;;;6106823;29;19911;-69
2023/04/17 18:47:43;;;;;;;;;;;18.50;55.90;;;;;;6126143;29;19915;-70
2023/04/17 18:50:44;;;;;;;;;;;18.50;56.00;;;;;;6146882;29;19911;-70
2023/04/17 18:53:44;;;;;;;;;;;18.50;56.00;;;;;;6135951;29;19917;-70
2023/04/17 18:56:46;;;;;;;;;;;18.50;56.00;;;;;;6137548;29;19915;-70
2023/04/17 18:59:46;;;;;;;;;;;18.50;55.90;;;;;;6122446;29;20017;-70
2023/04/17 19:02:47;;;;;;;;;;;18.50;55.80;;;;;;6122337;29;19974;-70
2023/04/17 19:05:47;;;;;;;;;;;18.50;55.90;;;;;;6122135;29;19911;-70
2023/04/17 19:08:48;;;;;;;;;;;18.50;55.90;;;;;;6127954;29;19918;-70